Cabrillo — WBU7354 — position and weather

sailwx.info

Track history (hours):
 
Tides and Currents Weather Stations Pressure Air Temp Water Temp Dewpoint Dewpoint Depression Visibility Wind Speed Wind Dir Waves Ship Positions

Cabrillo

Owner: SAUSE BROS OCEAN TOWING CO INC, LONG BEACH, CA. More information available from US FCC via Universal Licensing System and Coast Guard Vessel Documentation Center.

Last reported at 2018-Jan-19 11:05 UTC. Time now 2018-Jan-20 03:47 UTC.
Position N 33°45' W 118°12'.

Length 19 m; draft 2.8 m.

Type: Tug. MMSI: 367004260.

Date/timePositionNaut miles runAvg speedWind from/ knotsBaromVisibWave heightAir tempDewpointWater temp
2018-Jan-19 11:05N 33°45' W 118°12'0 0.0
2018-Jan-19 10:58N 33°45' W 118°12'0 0.0
2018-Jan-19 10:30N 33°45' W 118°12'2 0.2
2018-Jan-19 03:51N 33°46' W 118°11'2 6.1
2018-Jan-19 03:29N 33°45' W 118°08'1 1.5
2018-Jan-19 03:00N 33°44' W 118°09'3 5.2
2018-Jan-19 02:30N 33°45' W 118°12'2 1.1
2018-Jan-19 01:10N 33°44' W 118°10'1 6.9
2018-Jan-19 01:00N 33°45' W 118°10'1 1.8
2018-Jan-19 00:29N 33°46' W 118°11'1 2.8
2018-Jan-19 00:00N 33°45' W 118°10'0 0.1
2018-Jan-18 23:30N 33°45' W 118°10'1 1.2
2018-Jan-18 23:00N 33°45' W 118°10'2 4.4
2018-Jan-18 22:30N 33°45' W 118°12'0 0.0
2018-Jan-18 21:28N 33°45' W 118°12'0 0.0
2018-Jan-18 21:00N 33°45' W 118°12'0 0.0
2018-Jan-18 18:53N 33°45' W 118°12'0 0.1
2018-Jan-18 18:01N 33°45' W 118°12'0 3.3
2018-Jan-18 18:00N 33°45' W 118°12'2 4.3
2018-Jan-18 17:30N 33°45' W 118°10'1 0.4
2018-Jan-18 15:02N 33°44' W 118°09'0 7.6
2018-Jan-18 15:00N 33°44' W 118°09'3 0.6
2018-Jan-18 10:17N 33°45' W 118°12'0 0.3
2018-Jan-18 09:57N 33°45' W 118°12'2 4.2
2018-Jan-18 09:25N 33°45' W 118°10'0 0.1
2018-Jan-18 08:59N 33°45' W 118°10'1 2.3
2018-Jan-18 08:24N 33°46' W 118°11'0 0.0
2018-Jan-18 08:00N 33°46' W 118°11'1 2.8
2018-Jan-18 07:30N 33°45' W 118°10'2 2.0
2018-Jan-18 06:25N 33°44' W 118°12'3 6.8
2018-Jan-18 06:00N 33°44' W 118°09'0 0.5
2018-Jan-18 05:20N 33°45' W 118°09'1 2.0
2018-Jan-18 05:00N 33°45' W 118°10'0 0.0
2018-Jan-18 04:30N 33°45' W 118°10'1 1.0
2018-Jan-18 03:54N 33°45' W 118°10'1 2.4
2018-Jan-18 03:30N 33°46' W 118°11'  
2018-Jan-12 07:18N 33°44' W 118°12'2 5.6
2018-Jan-12 07:00N 33°45' W 118°11'1 2.5
2018-Jan-12 06:29N 33°44' W 118°11'1 2.2
2018-Jan-12 05:52N 33°45' W 118°12'1 2.3
2018-Jan-12 05:30N 33°44' W 118°12'3 5.7
2018-Jan-12 05:00N 33°44' W 118°08'1 2.2
2018-Jan-12 04:30N 33°45' W 118°10'0 0.1
2018-Jan-12 00:42N 33°44' W 118°09'  
Track history (hours):
 
Tides and Currents Weather Stations Pressure Air Temp Water Temp Dewpoint Dewpoint Depression Visibility Wind Speed Wind Dir Waves Ship Positions

Cabrillo

Owner: SAUSE BROS OCEAN TOWING CO INC, LONG BEACH, CA. More information available from US FCC via Universal Licensing System and Coast Guard Vessel Documentation Center.

Last reported at 2018-Jan-19 11:05 UTC. Time now 2018-Jan-20 03:47 UTC.
Position N 33°45' W 118°12'.

Length 19 m; draft 2.8 m.

Type: Tug. MMSI: 367004260.

Date/timePositionNaut miles runAvg speedWind from/ knotsBaromVisibWave heightAir tempDewpointWater temp
2018-Jan-19 11:05N 33°45' W 118°12'0 0.0
2018-Jan-19 10:58N 33°45' W 118°12'0 0.0
2018-Jan-19 10:30N 33°45' W 118°12'2 0.2
2018-Jan-19 03:51N 33°46' W 118°11'2 6.1
2018-Jan-19 03:29N 33°45' W 118°08'1 1.5
2018-Jan-19 03:00N 33°44' W 118°09'3 5.2
2018-Jan-19 02:30N 33°45' W 118°12'2 1.1
2018-Jan-19 01:10N 33°44' W 118°10'1 6.9
2018-Jan-19 01:00N 33°45' W 118°10'1 1.8
2018-Jan-19 00:29N 33°46' W 118°11'1 2.8
2018-Jan-19 00:00N 33°45' W 118°10'0 0.1
2018-Jan-18 23:30N 33°45' W 118°10'1 1.2
2018-Jan-18 23:00N 33°45' W 118°10'2 4.4
2018-Jan-18 22:30N 33°45' W 118°12'0 0.0
2018-Jan-18 21:28N 33°45' W 118°12'0 0.0
2018-Jan-18 21:00N 33°45' W 118°12'0 0.0
2018-Jan-18 18:53N 33°45' W 118°12'0 0.1
2018-Jan-18 18:01N 33°45' W 118°12'0 3.3
2018-Jan-18 18:00N 33°45' W 118°12'2 4.3
2018-Jan-18 17:30N 33°45' W 118°10'1 0.4
2018-Jan-18 15:02N 33°44' W 118°09'0 7.6
2018-Jan-18 15:00N 33°44' W 118°09'3 0.6
2018-Jan-18 10:17N 33°45' W 118°12'0 0.3
2018-Jan-18 09:57N 33°45' W 118°12'2 4.2
2018-Jan-18 09:25N 33°45' W 118°10'0 0.1
2018-Jan-18 08:59N 33°45' W 118°10'1 2.3
2018-Jan-18 08:24N 33°46' W 118°11'0 0.0
2018-Jan-18 08:00N 33°46' W 118°11'1 2.8
2018-Jan-18 07:30N 33°45' W 118°10'2 2.0
2018-Jan-18 06:25N 33°44' W 118°12'3 6.8
2018-Jan-18 06:00N 33°44' W 118°09'0 0.5
2018-Jan-18 05:20N 33°45' W 118°09'1 2.0
2018-Jan-18 05:00N 33°45' W 118°10'0 0.0
2018-Jan-18 04:30N 33°45' W 118°10'1 1.0
2018-Jan-18 03:54N 33°45' W 118°10'1 2.4
2018-Jan-18 03:30N 33°46' W 118°11'  
2018-Jan-12 07:18N 33°44' W 118°12'2 5.6
2018-Jan-12 07:00N 33°45' W 118°11'1 2.5
2018-Jan-12 06:29N 33°44' W 118°11'1 2.2
2018-Jan-12 05:52N 33°45' W 118°12'1 2.3
2018-Jan-12 05:30N 33°44' W 118°12'3 5.7
2018-Jan-12 05:00N 33°44' W 118°08'1 2.2
2018-Jan-12 04:30N 33°45' W 118°10'0 0.1
2018-Jan-12 00:42N 33°44' W 118°09'  

Dump ship's entire track history